createdAt,value
2023-03-06T00:00:30.492Z,11.87
2023-03-06T00:02:59.489Z,14.00
2023-03-06T00:05:28.304Z,15.63
2023-03-06T00:07:56.735Z,15.40
2023-03-06T00:10:27.435Z,13.87
2023-03-06T00:12:56.427Z,11.83
2023-03-06T00:15:25.708Z,11.00
2023-03-06T00:17:54.179Z,11.90
2023-03-06T00:20:23.060Z,15.83
2023-03-06T00:22:52.003Z,16.70
2023-03-06T00:25:21.296Z,19.67
2023-03-06T00:27:51.497Z,13.40
2023-03-06T00:30:21.231Z,13.17
2023-03-06T00:32:49.865Z,14.70
2023-03-06T00:35:18.749Z,14.97
2023-03-06T00:37:47.237Z,18.97
2023-03-06T00:40:17.108Z,15.93
2023-03-06T00:42:45.697Z,18.00
2023-03-06T00:45:15.739Z,19.67
2023-03-06T00:47:44.304Z,20.03
2023-03-06T00:50:13.362Z,18.27
2023-03-06T00:52:42.115Z,19.80
2023-03-06T00:55:11.317Z,19.70
2023-03-06T00:57:39.694Z,24.77
2023-03-06T01:00:08.763Z,21.17
2023-03-06T01:02:38.525Z,23.17
2023-03-06T01:05:07.584Z,20.73
2023-03-06T01:07:37.013Z,24.43
2023-03-06T01:10:05.691Z,22.00
2023-03-06T01:12:34.034Z,24.80
2023-03-06T01:15:02.531Z,19.77
2023-03-06T01:17:30.908Z,27.23
2023-03-06T01:20:00.849Z,22.90
2023-03-06T01:22:29.186Z,27.90
2023-03-06T01:24:57.638Z,25.20
2023-03-06T01:27:26.075Z,28.00
2023-03-06T01:29:54.608Z,29.17
2023-03-06T01:32:22.984Z,30.83
2023-03-06T01:34:51.448Z,28.53
2023-03-06T01:37:21.359Z,29.93
2023-03-06T01:39:49.991Z,31.93
2023-03-06T01:42:18.427Z,29.43
2023-03-06T01:45:00.046Z,33.43
2023-03-06T01:47:28.425Z,38.70
2023-03-06T01:49:57.830Z,31.30
2023-03-06T01:52:28.338Z,37.43
2023-03-06T01:54:59.225Z,33.73
2023-03-06T01:57:29.494Z,32.47
2023-03-06T02:00:00.909Z,34.07
2023-03-06T02:02:30.529Z,34.57
2023-03-06T02:05:00.800Z,34.17
2023-03-06T02:07:30.646Z,34.30
2023-03-06T02:09:59.160Z,33.73
2023-03-06T02:12:28.088Z,36.83
2023-03-06T02:14:56.542Z,37.80
2023-03-06T02:17:25.927Z,37.37
2023-03-06T02:19:56.055Z,30.90
2023-03-06T02:22:24.877Z,33.20
2023-03-06T02:24:56.940Z,40.10
2023-03-06T02:27:27.200Z,36.17
2023-03-06T02:29:55.612Z,37.57
2023-03-06T02:32:23.824Z,32.07
2023-03-06T02:34:55.060Z,37.60
2023-03-06T02:37:24.007Z,40.13
2023-03-06T02:39:55.121Z,43.13
2023-03-06T02:42:24.495Z,34.43
2023-03-06T02:44:55.484Z,35.57
2023-03-06T02:47:23.884Z,30.70
2023-03-06T02:49:52.355Z,38.83
2023-03-06T02:52:20.919Z,34.50
2023-03-06T02:54:49.371Z,33.60
2023-03-06T02:57:17.746Z,39.87
2023-03-06T02:59:46.256Z,33.37
2023-03-06T03:02:16.145Z,31.10
2023-03-06T03:04:44.498Z,33.60
2023-03-06T03:07:12.971Z,30.80
2023-03-06T03:09:41.292Z,36.07
2023-03-06T03:12:10.022Z,29.27
2023-03-06T03:14:38.406Z,23.53
2023-03-06T03:17:06.901Z,23.80
2023-03-06T03:19:36.829Z,14.30
2023-03-06T03:22:05.196Z,18.43
2023-03-06T03:24:33.699Z,16.07
2023-03-06T03:27:02.222Z,17.17
2023-03-06T03:29:30.582Z,13.20
2023-03-06T03:31:58.994Z,12.23
2023-03-06T03:34:27.442Z,11.53
2023-03-06T03:36:57.173Z,11.17
2023-03-06T03:39:25.542Z,11.53
2023-03-06T03:41:53.862Z,13.13
2023-03-06T03:44:22.605Z,9.60
2023-03-06T03:46:51.146Z,11.80
2023-03-06T03:49:19.569Z,13.47
2023-03-06T03:51:48.061Z,9.87
2023-03-06T03:54:18.001Z,9.20
2023-03-06T03:56:46.504Z,11.17
2023-03-06T03:59:14.887Z,12.13
2023-03-06T04:01:44.735Z,12.67
2023-03-06T04:04:13.223Z,8.27
2023-03-06T04:06:41.766Z,10.97
2023-03-06T04:09:10.172Z,8.63
2023-03-06T04:11:40.066Z,8.97
2023-03-06T04:14:09.781Z,10.33
2023-03-06T04:16:38.239Z,12.07
2023-03-06T04:19:06.740Z,18.37
2023-03-06T04:21:35.150Z,9.77
2023-03-06T04:24:03.699Z,12.83
2023-03-06T04:26:32.250Z,12.40
2023-03-06T04:29:02.055Z,10.67
2023-03-06T04:31:30.454Z,14.33
2023-03-06T04:33:58.820Z,12.93
2023-03-06T04:36:28.824Z,14.17
2023-03-06T04:38:57.225Z,13.07
2023-03-06T04:41:25.650Z,19.33
2023-03-06T04:43:54.181Z,15.43
2023-03-06T04:46:24.190Z,21.23
2023-03-06T04:48:52.977Z,21.20
2023-03-06T04:51:21.385Z,19.33
2023-03-06T04:53:49.767Z,18.67
2023-03-06T04:56:18.206Z,21.07
2023-03-06T04:58:46.880Z,16.47
2023-03-06T05:01:15.473Z,20.83
2023-03-06T05:03:45.398Z,18.93
2023-03-06T05:06:14.920Z,17.90
2023-03-06T05:08:43.502Z,17.10
2023-03-06T05:11:11.984Z,19.03
2023-03-06T05:13:40.548Z,20.47
2023-03-06T05:16:09.739Z,16.27
2023-03-06T05:18:38.492Z,16.80
2023-03-06T05:21:08.492Z,15.57
2023-03-06T05:23:38.577Z,14.03
2023-03-06T05:26:08.902Z,15.67
2023-03-06T05:28:37.367Z,20.77
2023-03-06T05:31:06.047Z,17.40
2023-03-06T05:33:34.672Z,13.60
2023-03-06T05:36:03.423Z,13.70
2023-03-06T05:38:33.803Z,14.27
2023-03-06T05:41:02.171Z,10.83
2023-03-06T05:43:30.525Z,15.43
2023-03-06T05:46:02.807Z,12.07
2023-03-06T05:48:31.314Z,11.93
2023-03-06T05:51:00.166Z,9.93
2023-03-06T05:53:29.365Z,13.30
2023-03-06T05:55:59.915Z,9.80
2023-03-06T05:58:28.617Z,11.93
2023-03-06T06:00:57.013Z,10.33
2023-03-06T06:03:25.810Z,12.43
2023-03-06T06:05:54.670Z,12.90
2023-03-06T06:08:23.165Z,8.37
2023-03-06T06:10:53.401Z,12.77
2023-03-06T06:13:23.353Z,15.07
2023-03-06T06:15:51.908Z,12.70
2023-03-06T06:18:20.427Z,15.00
2023-03-06T06:20:48.967Z,10.47
2023-03-06T06:23:17.498Z,13.70
2023-03-06T06:25:46.012Z,12.83
2023-03-06T06:28:14.382Z,14.27
2023-03-06T06:30:44.087Z,16.00
2023-03-06T06:33:12.550Z,15.17
2023-03-06T06:35:41.155Z,13.17
2023-03-06T06:38:09.537Z,15.67
2023-03-06T06:40:37.550Z,15.73
2023-03-06T06:43:05.931Z,14.63
2023-03-06T06:45:34.525Z,13.27
2023-03-06T06:48:04.332Z,13.77
2023-03-06T06:50:32.682Z,15.93
2023-03-06T06:53:01.031Z,13.50
2023-03-06T06:55:29.431Z,14.70
2023-03-06T06:57:58.017Z,14.37
2023-03-06T07:00:27.652Z,13.97
2023-03-06T07:02:56.056Z,14.33
2023-03-06T07:05:25.856Z,11.17
2023-03-06T07:07:54.148Z,10.87
2023-03-06T07:10:22.737Z,8.63
2023-03-06T07:12:51.062Z,8.47
2023-03-06T07:15:19.687Z,8.83
2023-03-06T07:17:50.013Z,10.77
2023-03-06T07:20:19.111Z,11.77
2023-03-06T07:22:51.720Z,14.73
2023-03-06T07:25:20.757Z,12.27
2023-03-06T07:27:53.675Z,13.93
2023-03-06T07:30:23.129Z,10.93
2023-03-06T07:32:53.863Z,12.53
2023-03-06T07:35:22.538Z,10.60
2023-03-06T07:37:52.286Z,12.10
2023-03-06T07:40:20.940Z,13.20
2023-03-06T07:42:49.432Z,15.17
2023-03-06T07:45:17.955Z,14.67
2023-03-06T07:47:46.455Z,16.43
2023-03-06T07:50:15.062Z,18.77
2023-03-06T07:52:43.418Z,20.57
2023-03-06T07:55:13.773Z,19.60
2023-03-06T07:57:42.108Z,17.83
2023-03-06T08:00:12.793Z,20.37
2023-03-06T08:02:41.540Z,22.67
2023-03-06T08:05:10.337Z,30.33
2023-03-06T08:07:38.812Z,17.47
2023-03-06T08:10:07.821Z,27.43
2023-03-06T08:12:37.216Z,20.70
2023-03-06T08:15:05.910Z,23.63
2023-03-06T08:17:34.236Z,21.53
2023-03-06T08:20:02.270Z,21.83
2023-03-06T08:22:30.584Z,24.03
2023-03-06T08:24:58.993Z,21.23
2023-03-06T08:27:27.488Z,23.93
2023-03-06T08:29:57.173Z,25.20
2023-03-06T08:32:25.572Z,20.47
2023-03-06T08:34:54.002Z,28.53
2023-03-06T08:37:22.441Z,21.53
2023-03-06T08:39:50.866Z,19.87
2023-03-06T08:42:20.122Z,22.47
2023-03-06T08:44:48.488Z,20.23
2023-03-06T08:47:18.221Z,20.20
2023-03-06T08:49:46.636Z,22.93
2023-03-06T08:52:16.966Z,25.43
2023-03-06T08:54:45.040Z,23.43
2023-03-06T08:57:13.349Z,24.63
2023-03-06T08:59:42.840Z,23.93
2023-03-06T09:02:15.143Z,23.93
2023-03-06T09:04:44.987Z,24.00
2023-03-06T09:07:13.389Z,23.57
2023-03-06T09:09:42.238Z,21.13
2023-03-06T09:12:10.603Z,22.00
2023-03-06T09:14:38.970Z,24.40
2023-03-06T09:17:07.412Z,23.27
2023-03-06T09:19:35.776Z,27.97
2023-03-06T09:22:05.565Z,25.53
2023-03-06T09:24:33.947Z,28.23
2023-03-06T09:27:02.408Z,28.37
2023-03-06T09:29:30.777Z,27.40
2023-03-06T09:31:59.117Z,27.90
2023-03-06T09:34:27.778Z,30.63
2023-03-06T09:36:57.675Z,23.73
2023-03-06T09:39:28.244Z,26.73
2023-03-06T09:41:57.840Z,26.73
2023-03-06T09:44:28.544Z,26.53
2023-03-06T09:47:09.757Z,30.30
2023-03-06T09:49:40.515Z,30.40
2023-03-06T09:52:16.724Z,27.90
2023-03-06T09:54:47.316Z,29.40
2023-03-06T09:57:20.549Z,26.63
2023-03-06T09:59:50.413Z,33.97
2023-03-06T10:02:22.399Z,33.10
2023-03-06T10:04:52.184Z,30.90
2023-03-06T10:07:22.617Z,39.33
2023-03-06T10:09:53.435Z,29.93
2023-03-06T10:12:25.992Z,35.73
2023-03-06T10:15:01.552Z,28.73
2023-03-06T10:17:33.036Z,25.83
2023-03-06T10:20:01.806Z,28.70
2023-03-06T10:22:33.097Z,30.93
2023-03-06T10:25:05.166Z,39.60
2023-03-06T10:27:40.856Z,36.57
2023-03-06T10:30:19.491Z,38.50
2023-03-06T10:32:49.929Z,37.00
2023-03-06T10:35:20.433Z,43.70
2023-03-06T10:37:49.461Z,42.30
2023-03-06T10:40:21.600Z,46.17
2023-03-06T10:42:58.693Z,42.03
2023-03-06T10:45:49.328Z,39.43
2023-03-06T10:48:20.339Z,33.10
2023-03-06T10:50:48.771Z,37.50
2023-03-06T10:53:24.840Z,33.90
2023-03-06T10:55:56.329Z,35.70
2023-03-06T10:58:25.822Z,8.07
2023-03-06T11:01:05.499Z,24.50
2023-03-06T11:03:33.905Z,22.20
2023-03-06T11:06:04.085Z,20.40
2023-03-06T11:08:33.060Z,14.27
2023-03-06T11:11:04.068Z,13.27
2023-03-06T11:13:33.804Z,10.63
2023-03-06T11:16:04.027Z,12.73
2023-03-06T11:18:35.149Z,13.37
2023-03-06T11:21:05.053Z,11.30
2023-03-06T11:23:44.315Z,10.87
2023-03-06T11:26:22.428Z,9.93
2023-03-06T11:28:55.760Z,15.10
2023-03-06T11:31:25.930Z,11.33
2023-03-06T11:33:56.244Z,15.53
2023-03-06T11:36:27.345Z,17.00
2023-03-06T11:38:56.298Z,18.53
2023-03-06T11:41:33.248Z,19.33
2023-03-06T11:44:06.382Z,19.47
2023-03-06T11:46:38.795Z,15.47
2023-03-06T11:49:12.466Z,22.40
2023-03-06T11:51:43.236Z,23.97
2023-03-06T11:54:14.559Z,16.00
2023-03-06T11:56:52.568Z,18.20
2023-03-06T11:59:29.004Z,18.03
2023-03-06T12:02:00.683Z,13.17
2023-03-06T12:04:51.073Z,15.47
2023-03-06T12:07:23.499Z,13.53
2023-03-06T12:09:56.407Z,16.97
2023-03-06T12:12:31.342Z,15.53
2023-03-06T12:15:08.738Z,10.80
2023-03-06T12:17:43.672Z,13.63
2023-03-06T12:20:19.121Z,19.20
2023-03-06T12:22:57.543Z,16.23
2023-03-06T12:25:31.235Z,15.07
2023-03-06T12:28:06.255Z,10.40
2023-03-06T12:30:53.349Z,16.73
2023-03-06T12:33:28.843Z,15.47
2023-03-06T12:36:04.822Z,17.07
2023-03-06T12:38:43.723Z,14.73
2023-03-06T12:41:19.304Z,13.77
2023-03-06T12:44:02.544Z,11.23
2023-03-06T12:46:32.268Z,9.07
2023-03-06T12:49:05.030Z,8.20
2023-03-06T12:51:33.828Z,10.10
2023-03-06T12:54:03.633Z,5.50
2023-03-06T12:56:33.352Z,10.10
2023-03-06T12:59:03.048Z,6.47
2023-03-06T13:01:51.485Z,8.83
2023-03-06T13:04:28.665Z,11.67
2023-03-06T13:07:04.726Z,11.57
2023-03-06T13:09:36.587Z,10.60
2023-03-06T13:12:27.691Z,12.53
2023-03-06T13:14:57.426Z,11.00
2023-03-06T13:17:29.123Z,11.90
2023-03-06T13:20:15.501Z,11.13
2023-03-06T13:22:44.665Z,11.40
2023-03-06T13:25:32.641Z,8.33
2023-03-06T13:28:05.246Z,10.37
2023-03-06T13:30:46.850Z,10.83
2023-03-06T13:33:46.333Z,8.23
2023-03-06T13:36:29.884Z,7.03
2023-03-06T13:39:00.108Z,8.60
2023-03-06T13:41:39.295Z,18.27
2023-03-06T13:44:22.598Z,21.73
2023-03-06T13:46:57.985Z,14.43
2023-03-06T13:49:26.824Z,12.23
2023-03-06T13:52:08.123Z,9.23
2023-03-06T13:54:45.289Z,9.43
2023-03-06T13:57:24.142Z,9.93
2023-03-06T14:00:08.736Z,10.97
2023-03-06T14:02:56.297Z,6.77
2023-03-06T14:05:25.626Z,9.53
2023-03-06T14:08:05.606Z,8.53
2023-03-06T14:10:36.457Z,6.73
2023-03-06T14:13:06.298Z,6.60
2023-03-06T14:15:44.689Z,6.73
2023-03-06T14:18:17.638Z,12.23
2023-03-06T14:20:46.866Z,7.10
2023-03-06T14:23:26.326Z,6.03
2023-03-06T14:25:57.211Z,7.03
2023-03-06T14:28:26.308Z,5.13
2023-03-06T14:30:55.866Z,5.87
2023-03-06T14:33:32.710Z,4.80
2023-03-06T14:36:02.569Z,6.30
2023-03-06T14:38:34.228Z,5.80
2023-03-06T14:41:02.830Z,6.33
2023-03-06T14:43:32.394Z,6.13
2023-03-06T14:46:02.315Z,8.13
2023-03-06T14:48:40.094Z,5.87
2023-03-06T14:51:09.876Z,8.23
2023-03-06T14:53:39.705Z,8.77
2023-03-06T14:56:09.051Z,5.23
2023-03-06T14:58:38.563Z,9.27
2023-03-06T15:01:09.212Z,8.63
2023-03-06T15:03:43.568Z,7.37
2023-03-06T15:06:13.147Z,8.33
2023-03-06T15:08:44.811Z,8.77
2023-03-06T15:11:14.233Z,11.90
2023-03-06T15:13:42.645Z,8.80
2023-03-06T15:16:24.679Z,14.70
2023-03-06T15:18:56.979Z,7.23
2023-03-06T15:21:26.611Z,8.87
2023-03-06T15:23:56.723Z,8.63
2023-03-06T15:26:31.230Z,6.93
2023-03-06T15:29:08.953Z,7.60
2023-03-06T15:31:39.212Z,15.70
2023-03-06T15:34:23.689Z,5.40
2023-03-06T15:36:55.928Z,7.10
2023-03-06T15:39:36.063Z,6.80
2023-03-06T15:42:06.042Z,8.93
2023-03-06T15:44:34.777Z,6.93
2023-03-06T15:47:08.849Z,10.93
2023-03-06T15:49:38.683Z,7.10
2023-03-06T15:52:07.211Z,6.97
2023-03-06T15:54:37.205Z,8.77
2023-03-06T15:57:07.036Z,7.20
2023-03-06T15:59:38.859Z,8.53
2023-03-06T16:02:13.814Z,7.30
2023-03-06T16:04:42.757Z,8.17
2023-03-06T16:07:11.304Z,8.80
2023-03-06T16:09:41.595Z,6.70
2023-03-06T16:12:15.803Z,7.17
2023-03-06T16:14:44.277Z,7.77
2023-03-06T16:17:13.166Z,10.70
2023-03-06T16:19:41.926Z,9.40
2023-03-06T16:22:10.476Z,8.93
2023-03-06T16:24:39.291Z,7.87
2023-03-06T16:27:09.223Z,8.37
2023-03-06T16:29:37.925Z,8.60
2023-03-06T16:32:06.521Z,7.00
2023-03-06T16:34:34.524Z,7.93
2023-03-06T16:37:02.938Z,8.03
2023-03-06T16:39:31.287Z,8.43
2023-03-06T16:41:59.624Z,10.57
2023-03-06T16:44:29.425Z,10.57
2023-03-06T16:46:57.894Z,10.90
2023-03-06T16:49:26.890Z,10.27
2023-03-06T16:51:56.299Z,9.53
2023-03-06T16:54:26.247Z,8.67
2023-03-06T16:56:54.726Z,10.27
2023-03-06T16:59:24.920Z,6.43
2023-03-06T17:01:54.677Z,7.70
2023-03-06T17:04:23.218Z,8.27
2023-03-06T17:06:52.912Z,7.27
2023-03-06T17:09:21.340Z,6.50
2023-03-06T17:11:49.798Z,8.47
2023-03-06T17:14:18.250Z,9.90
2023-03-06T17:16:46.611Z,8.90
2023-03-06T17:19:16.741Z,7.63
2023-03-06T17:21:45.352Z,10.47
2023-03-06T17:24:13.844Z,10.80
2023-03-06T17:26:43.414Z,9.17
2023-03-06T17:29:12.159Z,12.53
2023-03-06T17:31:40.540Z,14.13
2023-03-06T17:34:09.020Z,13.20
2023-03-06T17:36:38.713Z,13.40
2023-03-06T17:39:08.261Z,11.53
2023-03-06T17:41:44.663Z,11.97
2023-03-06T17:44:16.423Z,15.13
2023-03-06T17:46:44.872Z,15.57
2023-03-06T17:49:13.249Z,11.47
2023-03-06T17:51:42.970Z,13.13
2023-03-06T17:54:11.474Z,12.43
2023-03-06T17:56:39.834Z,13.23
2023-03-06T17:59:08.203Z,13.50
2023-03-06T18:01:36.605Z,12.80
2023-03-06T18:04:05.001Z,14.10
2023-03-06T18:06:33.774Z,12.50
2023-03-06T18:09:03.876Z,13.20
2023-03-06T18:11:32.611Z,10.67
2023-03-06T18:14:00.976Z,12.60
2023-03-06T18:16:29.371Z,12.90
2023-03-06T18:18:58.572Z,15.17
2023-03-06T18:21:27.372Z,14.60
2023-03-06T18:23:55.748Z,13.97
2023-03-06T18:26:26.894Z,13.20
2023-03-06T18:28:56.535Z,13.47
2023-03-06T18:31:26.152Z,15.27
2023-03-06T18:33:55.444Z,10.60
2023-03-06T18:36:24.858Z,13.53
2023-03-06T18:38:53.289Z,11.23
2023-03-06T18:41:22.380Z,11.90
2023-03-06T18:43:54.914Z,9.17
2023-03-06T18:46:24.050Z,13.00
2023-03-06T18:48:52.366Z,14.70
2023-03-06T18:51:20.790Z,13.80
2023-03-06T18:53:49.329Z,12.57
2023-03-06T18:56:18.708Z,23.27
2023-03-06T18:58:47.108Z,13.90
2023-03-06T19:01:16.891Z,14.83
2023-03-06T19:03:45.344Z,13.10
2023-03-06T19:06:14.787Z,13.70
2023-03-06T19:08:43.246Z,16.73
2023-03-06T19:11:13.655Z,13.77
2023-03-06T19:13:42.143Z,16.13
2023-03-06T19:16:11.243Z,16.63
2023-03-06T19:18:42.382Z,19.50
2023-03-06T19:21:11.691Z,18.50
2023-03-06T19:23:40.308Z,17.37
2023-03-06T19:26:09.170Z,18.40
2023-03-06T19:28:38.653Z,16.87
2023-03-06T19:31:13.478Z,14.10
2023-03-06T19:33:43.603Z,25.67
2023-03-06T19:36:12.935Z,18.40
2023-03-06T19:38:41.475Z,20.27
2023-03-06T19:41:13.543Z,17.97
2023-03-06T19:43:41.992Z,22.83
2023-03-06T19:46:12.756Z,15.83
2023-03-06T19:48:42.904Z,22.87
2023-03-06T19:51:11.829Z,18.93
2023-03-06T19:53:40.605Z,19.00
2023-03-06T19:56:10.534Z,21.33
2023-03-06T19:58:40.576Z,23.27
2023-03-06T20:01:10.562Z,22.17
2023-03-06T20:03:40.241Z,17.27
2023-03-06T20:06:13.821Z,18.90
2023-03-06T20:08:42.648Z,15.33
2023-03-06T20:11:17.476Z,22.67
2023-03-06T20:13:47.301Z,19.43
2023-03-06T20:16:16.430Z,20.57
2023-03-06T20:18:45.879Z,24.13
2023-03-06T20:21:16.245Z,25.30
2023-03-06T20:23:44.591Z,19.03
2023-03-06T20:26:14.252Z,20.47
2023-03-06T20:28:44.219Z,17.83
2023-03-06T20:31:16.753Z,18.37
2023-03-06T20:33:45.391Z,19.90
2023-03-06T20:36:14.416Z,16.57
2023-03-06T20:38:44.383Z,19.13
2023-03-06T20:41:15.626Z,22.43
2023-03-06T20:43:44.308Z,19.07
2023-03-06T20:46:14.010Z,18.77
2023-03-06T20:48:42.823Z,15.80
2023-03-06T20:51:15.041Z,19.20
2023-03-06T20:53:44.945Z,16.30
2023-03-06T20:56:14.618Z,20.97
2023-03-06T20:58:43.282Z,24.77
2023-03-06T21:01:19.608Z,18.37
2023-03-06T21:03:48.035Z,22.40
2023-03-06T21:06:16.653Z,15.40
2023-03-06T21:08:46.453Z,21.73
2023-03-06T21:11:14.976Z,17.37
2023-03-06T21:13:43.642Z,21.67
2023-03-06T21:16:12.912Z,20.10
2023-03-06T21:18:41.517Z,24.57
2023-03-06T21:21:10.593Z,20.87
2023-03-06T21:23:39.580Z,30.70
2023-03-06T21:26:09.380Z,22.90
2023-03-06T21:28:37.782Z,23.90
2023-03-06T21:31:08.670Z,14.17
2023-03-06T21:33:38.188Z,12.57
2023-03-06T21:36:06.822Z,13.43
2023-03-06T21:38:35.518Z,13.73
2023-03-06T21:41:09.926Z,10.10
2023-03-06T21:43:38.521Z,15.83
2023-03-06T21:46:07.231Z,17.20
2023-03-06T21:48:35.734Z,14.70
2023-03-06T21:51:08.544Z,13.40
2023-03-06T21:53:37.341Z,15.00
2023-03-06T21:56:06.329Z,12.83
2023-03-06T21:58:36.347Z,15.00
2023-03-06T22:01:09.471Z,18.27
2023-03-06T22:03:38.036Z,11.90
2023-03-06T22:06:10.529Z,15.70
2023-03-06T22:08:38.997Z,20.10
2023-03-06T22:11:08.383Z,21.23
2023-03-06T22:13:38.566Z,11.53
2023-03-06T22:16:07.487Z,14.17
2023-03-06T22:18:36.341Z,10.83
2023-03-06T22:21:07.821Z,15.67
2023-03-06T22:23:36.172Z,13.30
2023-03-06T22:26:05.117Z,13.10
2023-03-06T22:28:33.610Z,15.63
2023-03-06T22:31:07.277Z,13.53
2023-03-06T22:33:36.393Z,11.30
2023-03-06T22:36:06.286Z,10.93
2023-03-06T22:38:34.981Z,10.00
2023-03-06T22:41:03.688Z,11.40
2023-03-06T22:43:34.542Z,14.30
2023-03-06T22:46:03.659Z,14.80
2023-03-06T22:48:33.499Z,15.87
2023-03-06T22:51:05.625Z,15.37
2023-03-06T22:53:34.493Z,17.73
2023-03-06T22:56:03.583Z,14.07
2023-03-06T22:58:34.460Z,15.67
2023-03-06T23:01:05.849Z,10.90
2023-03-06T23:03:36.630Z,12.60
2023-03-06T23:06:07.157Z,12.63
2023-03-06T23:08:35.558Z,21.53
2023-03-06T23:11:04.561Z,10.30
2023-03-06T23:13:32.850Z,15.13
2023-03-06T23:16:03.241Z,13.50
2023-03-06T23:18:32.931Z,15.07
2023-03-06T23:21:02.930Z,11.90
2023-03-06T23:23:31.396Z,13.97
2023-03-06T23:26:00.996Z,12.90
2023-03-06T23:28:29.431Z,16.33
2023-03-06T23:30:57.938Z,11.47
2023-03-06T23:33:26.534Z,11.23
2023-03-06T23:35:55.130Z,10.77
2023-03-06T23:38:25.041Z,13.57
2023-03-06T23:40:53.603Z,12.00
2023-03-06T23:43:22.043Z,14.07
2023-03-06T23:45:59.510Z,10.90
2023-03-06T23:48:28.249Z,4.23
2023-03-06T23:50:56.733Z,10.23
2023-03-06T23:53:26.522Z,11.60
2023-03-06T23:55:55.176Z,13.83
2023-03-06T23:58:23.616Z,9.90
